METAR Data
IDs: Format: Raw Decoded Include TAF

Data at: 0306 UTC 10 Dec 2022

METAR for:KUNI (Albany/Ohio Univ Arp, OH, US)
Text:KUNI 100255Z AUTO 34003KT 10SM OVC017 07/07 A3011 RMK AO2 T00710071
Temperature: 7.1°C ( 45°F)
Dewpoint: 7.1°C ( 45°F) [RH = 100%]
Pressure (altimeter):30.11 inches Hg (1019.7 mb)
Winds:from the NNW (340 degrees) at 3 MPH (3 knots; 1.5 m/s)
Visibility:10 or more sm (16+ km)
Ceiling:1700 feet AGL
Clouds: overcast cloud deck at 1700 feet AGL
QC Flag:automated observation with no human augmentation